Pickle Lake Airport
CYPL : now visible

Airfield :











YOU CAN JOIN US ON...

 
LOGIN :

Register | Disclaimer

   EN    FR    IT 

 









Legend :    VFR   Marginal VFR   IFR   Intensive IFR   Very Intensive IFR
Visi :
Ceiling :
>= 8 km
>= 3000ft
5 to 8 km
1000 to 3000 ft
1500m to 5 km
500 to 1000 ft
800 to 1500m
200 to 500 ft
< 800m
< 200 ft
Symbols :   Thunderstorms  Fog  Heavy snow  Heavy precipitations  Wind > 20 kt






- Airport Elevation : 1267 ft
- IATA code : YPL


CYPL - Pickle Lake

CURRENT METAR :
  • 250900Z AUTO 16012G19KT 9SM OVC013 09/06 A2971 RMK SLP074

EXPIRED METARs :
  • 250839Z AUTO 16011KT 9SM SCT015 BKN020 OVC150 09/06 A2972 RMK SLP076
  • 250800Z AUTO 14007KT 110V180 9SM FEW120 BKN150 08/06 A2974 RMK SLP084
  • 250700Z AUTO 16010KT 120V200 9SM OVC220 08/05 A2977 RMK SLP093
  • 250600Z AUTO 15009G15KT 9SM OVC150 08/04 A2979 RMK SLP100

TAF AMD TAF CYPL
Valid from the 25 at 08:00 until the 25 at 20:00 UTC


250843Z 2508/2520 16010KT P6SM BKN015 OVC060
TEMPO 2508/2512 SCT015 BKN060 BKN120
FM251200 20010G20KT P6SM SCT025 OVC060
TEMPO 2512/2517 P6SM -SHRA OVC015
FM251700 22012G22KT P6SM OVC015
TEMPO 2517/2520 5SM -DZ BR OVC008 RMK FCST BASED ON AUTO OBS. NXT FCST BY 251400Z
CZWG FIR / North America



MET'MAP, your aeronautical weather chart ! - Copyright ORBIFLY December 2007 - Disclaimer

ORBIFLY MET'MAP TEAM :

Programming & Development : Alexandra Zaïnal
Concept & original design : Baudouin d'Aumeries
Assistance for programming : Marc-Olivier Méhu
Technical & hardware support : Manuel Goepfert

Contact : metmap@orbifly.com




SOURCES & CREDITS :

   NOAA       Earth
Advisory